Terminal Aerodrome Forecast
Issued by NWS

Home | Current Version | Previous Version | Text Only | Print | Product List | Glossary On
Versions: 1 2 3 4 5 6 7 8 9 10 11 12 13
463
FTUS46 KSGX 191736
TAFONT
TAF
KONT 191736Z 1918/2024 25009KT P6SM SCT030
     FM191900 25012G20KT P6SM SCT025 SCT035
     FM200500 26005KT P6SM SKC
     FM201900 25012G20KT P6SM SKC=

USA.gov is the U.S. government's official web portal to all federal, state and local government web resources and services.